createdAt,value
2018-06-12T00:00:31.860Z,68.88
2018-06-12T00:03:00.753Z,68.63
2018-06-12T00:05:29.481Z,68.19
2018-06-12T00:07:58.545Z,68.02
2018-06-12T00:10:27.528Z,68.12
2018-06-12T00:12:56.666Z,67.79
2018-06-12T00:15:25.602Z,69.00
2018-06-12T00:17:54.656Z,69.31
2018-06-12T00:20:23.656Z,68.71
2018-06-12T00:22:52.685Z,70.20
2018-06-12T00:25:21.591Z,69.20
2018-06-12T00:27:50.425Z,68.61
2018-06-12T00:30:19.513Z,68.52
2018-06-12T00:32:48.340Z,69.19
2018-06-12T00:35:17.332Z,68.78
2018-06-12T00:37:46.280Z,69.02
2018-06-12T00:40:15.241Z,69.51
2018-06-12T00:42:44.337Z,69.73
2018-06-12T00:45:13.424Z,70.10
2018-06-12T00:47:42.273Z,70.05
2018-06-12T00:50:11.315Z,69.73
2018-06-12T00:52:40.192Z,70.27
2018-06-12T00:55:09.230Z,71.24
2018-06-12T00:57:38.168Z,68.81
2018-06-12T01:00:07.533Z,69.18
2018-06-12T01:02:36.580Z,68.45
2018-06-12T01:05:05.516Z,69.71
2018-06-12T01:07:37.596Z,70.07
2018-06-12T01:10:06.536Z,69.93
2018-06-12T01:12:35.608Z,69.41
2018-06-12T01:15:04.628Z,69.26
2018-06-12T01:17:33.452Z,68.83
2018-06-12T01:20:02.602Z,68.15
2018-06-12T01:22:31.493Z,68.72
2018-06-12T01:25:00.576Z,69.19
2018-06-12T01:27:29.595Z,68.85
2018-06-12T01:29:58.420Z,68.04
2018-06-12T01:32:27.520Z,68.17
2018-06-12T01:35:01.572Z,68.74
2018-06-12T01:37:30.736Z,68.58
2018-06-12T01:39:59.880Z,68.19
2018-06-12T01:42:28.901Z,67.60
2018-06-12T01:44:57.856Z,67.79
2018-06-12T01:47:26.749Z,67.59
2018-06-12T01:49:55.579Z,67.29
2018-06-12T01:52:24.376Z,67.04
2018-06-12T01:54:53.408Z,67.01
2018-06-12T01:57:22.417Z,66.54
2018-06-12T01:59:51.290Z,67.43
2018-06-12T02:02:20.308Z,66.45
2018-06-12T02:04:49.285Z,66.71
2018-06-12T02:07:18.169Z,66.61
2018-06-12T02:09:47.168Z,66.85
2018-06-12T02:12:15.956Z,66.42
2018-06-12T02:14:45.204Z,66.59
2018-06-12T02:17:14.292Z,66.69
2018-06-12T02:19:43.205Z,67.04
2018-06-12T02:22:12.143Z,66.54
2018-06-12T02:24:41.036Z,66.62
2018-06-12T02:27:09.908Z,67.51
2018-06-12T02:29:38.866Z,67.65
2018-06-12T02:32:07.873Z,68.32
2018-06-12T02:34:36.916Z,68.35
2018-06-12T02:37:05.948Z,67.99
2018-06-12T02:39:35.201Z,67.97
2018-06-12T02:42:04.173Z,68.01
2018-06-12T02:44:33.231Z,68.21
2018-06-12T02:47:02.681Z,67.92
2018-06-12T02:49:31.676Z,67.77
2018-06-12T02:52:00.932Z,68.23
2018-06-12T02:54:29.724Z,68.42
2018-06-12T02:56:58.717Z,68.09
2018-06-12T02:59:27.655Z,68.03
2018-06-12T03:02:00.689Z,68.46
2018-06-12T03:04:29.721Z,68.92
2018-06-12T03:06:58.693Z,69.20
2018-06-12T03:09:27.501Z,69.08
2018-06-12T03:11:56.413Z,69.44
2018-06-12T03:14:25.398Z,69.51
2018-06-12T03:16:54.468Z,68.86
2018-06-12T03:19:23.540Z,69.93
2018-06-12T03:21:52.461Z,70.11
2018-06-12T03:24:21.440Z,69.38
2018-06-12T03:26:50.464Z,69.22
2018-06-12T03:29:19.505Z,69.37
2018-06-12T03:31:48.545Z,70.85
2018-06-12T03:34:17.496Z,71.39
2018-06-12T03:36:46.445Z,72.03
2018-06-12T03:39:15.308Z,71.35
2018-06-12T03:41:44.344Z,71.09
2018-06-12T03:44:13.284Z,71.88
2018-06-12T03:46:42.156Z,70.50
2018-06-12T03:49:11.192Z,70.30
2018-06-12T03:51:40.174Z,69.59
2018-06-12T03:54:09.329Z,70.22
2018-06-12T03:56:38.322Z,70.37
2018-06-12T03:59:07.252Z,72.70
2018-06-12T04:01:36.245Z,72.62
2018-06-12T04:04:05.153Z,72.57
2018-06-12T04:06:37.975Z,71.17
2018-06-12T04:09:08.954Z,71.92
2018-06-12T04:11:38.161Z,72.41
2018-06-12T04:14:07.072Z,71.09
2018-06-12T04:16:37.369Z,70.76
2018-06-12T04:19:07.512Z,71.26
2018-06-12T04:21:37.754Z,70.78
2018-06-12T04:24:06.739Z,70.92
2018-06-12T04:26:35.705Z,70.17
2018-06-12T04:29:04.711Z,69.98
2018-06-12T04:31:33.584Z,68.87
2018-06-12T04:34:02.583Z,69.05
2018-06-12T04:36:31.433Z,68.10
2018-06-12T04:39:00.468Z,67.74
2018-06-12T04:41:29.464Z,67.28
2018-06-12T04:43:58.653Z,66.92
2018-06-12T04:46:27.708Z,67.56
2018-06-12T04:48:56.736Z,68.32
2018-06-12T04:51:25.695Z,67.57
2018-06-12T04:53:54.745Z,66.73
2018-06-12T04:56:23.733Z,68.12
2018-06-12T04:58:52.754Z,66.82
2018-06-12T05:01:21.605Z,66.70
2018-06-12T05:03:50.468Z,67.11
2018-06-12T05:06:19.526Z,67.28
2018-06-12T05:08:48.385Z,66.78
2018-06-12T05:11:17.420Z,65.99
2018-06-12T05:13:46.368Z,65.32
2018-06-12T05:16:15.260Z,64.12
2018-06-12T05:18:44.249Z,63.79
2018-06-12T05:21:13.236Z,63.71
2018-06-12T05:23:42.493Z,62.87
2018-06-12T05:26:11.648Z,62.29
2018-06-12T05:28:40.639Z,61.93
2018-06-12T05:31:09.695Z,63.20
2018-06-12T05:33:38.616Z,62.55
2018-06-12T05:36:07.768Z,62.41
2018-06-12T05:38:36.700Z,62.01
2018-06-12T05:41:05.617Z,62.24
2018-06-12T05:43:34.596Z,62.97
2018-06-12T05:46:03.585Z,63.05
2018-06-12T05:48:32.948Z,62.80
2018-06-12T05:51:01.973Z,63.75
2018-06-12T05:53:30.986Z,65.04
2018-06-12T05:56:00.031Z,64.17
2018-06-12T05:58:28.952Z,63.79
2018-06-12T06:00:58.029Z,64.13
2018-06-12T06:03:26.994Z,64.37
2018-06-12T06:05:55.933Z,63.97
2018-06-12T06:08:24.739Z,63.48
2018-06-12T06:10:53.718Z,62.90
2018-06-12T06:15:50.641Z,61.25
2018-06-12T06:18:19.828Z,61.57
2018-06-12T06:20:49.092Z,60.95
2018-06-12T06:23:18.085Z,61.58
2018-06-12T06:25:47.064Z,62.28
2018-06-12T06:28:15.953Z,62.11
2018-06-12T06:30:45.048Z,61.99
2018-06-12T06:33:14.020Z,62.33
2018-06-12T06:35:42.832Z,63.70
2018-06-12T06:38:12.085Z,64.27
2018-06-12T06:40:41.120Z,64.04
2018-06-12T06:43:10.109Z,63.80
2018-06-12T06:45:39.148Z,63.91
2018-06-12T06:48:08.004Z,65.00
2018-06-12T06:50:37.096Z,64.25
2018-06-12T06:53:06.000Z,65.06
2018-06-12T06:55:34.981Z,65.35
2018-06-12T06:58:04.212Z,64.62
2018-06-12T07:00:33.084Z,64.88
2018-06-12T07:03:02.053Z,64.16
2018-06-12T07:05:30.968Z,62.42
2018-06-12T07:07:59.916Z,62.44
2018-06-12T07:10:29.305Z,62.06
2018-06-12T07:12:58.344Z,63.46
2018-06-12T07:15:27.349Z,62.22
2018-06-12T07:17:56.239Z,63.12
2018-06-12T07:20:36.168Z,62.63
2018-06-12T07:23:05.168Z,61.00
2018-06-12T07:25:34.048Z,61.27
2018-06-12T07:28:03.249Z,61.48
2018-06-12T07:30:32.252Z,59.27
2018-06-12T07:33:01.204Z,60.51
2018-06-12T07:35:30.165Z,58.79
2018-06-12T07:37:59.116Z,57.89
2018-06-12T07:40:28.076Z,57.92
2018-06-12T07:42:57.029Z,57.70
2018-06-12T07:45:25.893Z,57.58
2018-06-12T07:47:55.016Z,57.82
2018-06-12T07:50:23.981Z,56.78
2018-06-12T07:52:52.944Z,56.67
2018-06-12T07:55:21.997Z,57.09
2018-06-12T07:57:51.060Z,57.59
2018-06-12T08:00:20.117Z,56.55
2018-06-12T08:02:49.150Z,56.22
2018-06-12T08:05:18.017Z,56.92
2018-06-12T08:07:47.056Z,58.75
2018-06-12T08:10:16.024Z,59.02
2018-06-12T08:12:45.045Z,58.52
2018-06-12T08:15:13.856Z,60.61
2018-06-12T08:17:42.768Z,59.45
2018-06-12T08:20:11.713Z,60.82
2018-06-12T08:22:40.576Z,61.71
2018-06-12T08:25:09.599Z,60.33
2018-06-12T08:27:38.744Z,59.16
2018-06-12T08:30:07.681Z,58.43
2018-06-12T08:32:36.669Z,59.15
2018-06-12T08:35:05.566Z,57.81
2018-06-12T08:37:34.584Z,59.19
2018-06-12T08:40:03.548Z,59.11
2018-06-12T08:42:32.400Z,57.64
2018-06-12T08:45:01.348Z,57.28
2018-06-12T08:47:30.325Z,56.59
2018-06-12T08:49:59.505Z,55.39
2018-06-12T08:52:28.557Z,55.85
2018-06-12T08:54:57.608Z,55.42
2018-06-12T08:57:26.685Z,54.70
2018-06-12T08:59:55.581Z,53.47
2018-06-12T09:02:24.649Z,54.05
2018-06-12T09:04:53.632Z,52.13
2018-06-12T09:07:22.568Z,51.30
2018-06-12T09:09:51.576Z,50.23
2018-06-12T09:12:20.508Z,47.95
2018-06-12T09:14:49.740Z,47.65
2018-06-12T09:17:18.640Z,47.58
2018-06-12T09:19:47.636Z,43.19
2018-06-12T09:22:16.680Z,42.25
2018-06-12T09:24:45.720Z,43.63
2018-06-12T09:27:14.708Z,40.96
2018-06-12T09:29:43.716Z,40.24
2018-06-12T09:32:12.957Z,37.98
2018-06-12T09:34:42.020Z,40.40
2018-06-12T09:37:11.146Z,36.75
2018-06-12T09:39:40.190Z,32.83
2018-06-12T09:42:09.204Z,31.75
2018-06-12T09:44:38.041Z,32.37
2018-06-12T09:47:07.016Z,32.90
2018-06-12T09:49:36.016Z,28.41
2018-06-12T09:52:05.352Z,27.72
2018-06-12T09:54:34.242Z,28.99
2018-06-12T09:57:03.196Z,30.65
2018-06-12T09:59:32.133Z,29.19
2018-06-12T10:02:01.129Z,31.02
2018-06-12T10:04:29.981Z,32.07
2018-06-12T10:06:59.032Z,30.80
2018-06-12T10:09:27.997Z,26.49
2018-06-12T10:11:57.113Z,28.21
2018-06-12T10:14:25.992Z,29.20
2018-06-12T10:16:54.953Z,33.99
2018-06-12T10:19:24.076Z,37.89
2018-06-12T10:21:53.180Z,35.91
2018-06-12T10:24:22.430Z,33.62
2018-06-12T10:26:51.460Z,35.20
2018-06-12T10:29:20.417Z,34.58
2018-06-12T10:31:49.465Z,35.72
2018-06-12T10:34:18.405Z,38.97
2018-06-12T10:36:47.472Z,42.53
2018-06-12T10:39:16.413Z,45.27
2018-06-12T10:41:45.294Z,48.52
2018-06-12T10:44:14.309Z,48.85
2018-06-12T10:46:43.269Z,51.71
2018-06-12T10:49:12.217Z,54.07
2018-06-12T10:51:41.138Z,57.05
2018-06-12T10:54:10.182Z,60.39
2018-06-12T10:56:39.188Z,60.29
2018-06-12T10:59:08.040Z,60.69
2018-06-12T11:01:37.124Z,64.23
2018-06-12T11:04:06.165Z,63.61
2018-06-12T11:06:35.150Z,64.03
2018-06-12T11:09:04.976Z,65.50
2018-06-12T11:11:34.520Z,66.25
2018-06-12T11:14:03.597Z,66.47
2018-06-12T11:16:32.453Z,66.84
2018-06-12T11:19:01.493Z,67.16
2018-06-12T11:21:30.433Z,66.32
2018-06-12T11:23:59.345Z,66.59
2018-06-12T11:26:28.478Z,66.38
2018-06-12T11:28:57.516Z,66.54
2018-06-12T11:31:26.403Z,67.09
2018-06-12T11:33:55.396Z,67.25
2018-06-12T11:36:24.312Z,65.62
2018-06-12T11:38:53.236Z,64.87
2018-06-12T11:41:22.272Z,65.09
2018-06-12T11:43:51.340Z,65.11
2018-06-12T11:46:20.294Z,64.16
2018-06-12T11:48:49.253Z,62.60
2018-06-12T11:51:18.250Z,62.13
2018-06-12T11:53:47.138Z,60.34
2018-06-12T11:56:16.141Z,61.63
2018-06-12T11:58:45.140Z,62.82
2018-06-12T12:01:14.134Z,63.93
2018-06-12T12:03:43.476Z,63.45
2018-06-12T12:06:12.391Z,63.18
2018-06-12T12:08:41.256Z,63.08
2018-06-12T12:11:10.323Z,63.72
2018-06-12T12:13:39.255Z,62.06
2018-06-12T12:16:08.613Z,61.39
2018-06-12T12:18:37.579Z,61.85
2018-06-12T12:21:06.596Z,63.44
2018-06-12T12:23:35.808Z,62.68
2018-06-12T12:26:04.732Z,62.00
2018-06-12T12:28:33.736Z,62.81
2018-06-12T12:31:02.760Z,63.06
2018-06-12T12:33:31.753Z,63.52
2018-06-12T12:36:00.692Z,63.16
2018-06-12T12:38:29.899Z,63.94
2018-06-12T12:40:58.725Z,64.54
2018-06-12T12:43:27.584Z,64.86
2018-06-12T12:45:56.776Z,65.93
2018-06-12T12:48:25.609Z,65.84
2018-06-12T12:50:54.709Z,65.04
2018-06-12T12:53:23.948Z,65.40
2018-06-12T12:55:53.045Z,65.46
2018-06-12T12:58:22.242Z,65.82
2018-06-12T13:00:51.576Z,65.76
2018-06-12T13:03:20.595Z,65.72
2018-06-12T13:05:49.473Z,66.03
2018-06-12T13:08:18.539Z,66.79
2018-06-12T13:10:47.452Z,65.70
2018-06-12T13:13:17.488Z,65.79
2018-06-12T13:15:46.768Z,65.50
2018-06-12T13:18:15.676Z,66.79
2018-06-12T13:20:44.605Z,66.33
2018-06-12T13:23:13.822Z,66.81
2018-06-12T13:25:42.921Z,67.36
2018-06-12T13:28:11.914Z,67.70
2018-06-12T13:30:41.470Z,67.43
2018-06-12T13:33:10.345Z,67.57
2018-06-12T13:35:39.361Z,66.48
2018-06-12T13:38:08.346Z,66.45
2018-06-12T13:40:37.221Z,66.91
2018-06-12T13:43:06.213Z,66.31
2018-06-12T13:45:35.200Z,66.39
2018-06-12T13:48:04.196Z,67.04
2018-06-12T13:50:33.247Z,66.45
2018-06-12T13:53:02.192Z,66.40
2018-06-12T13:55:31.305Z,67.31
2018-06-12T13:58:00.151Z,66.69
2018-06-12T14:00:29.157Z,67.04
2018-06-12T14:02:58.160Z,65.93
2018-06-12T14:05:27.156Z,65.95
2018-06-12T14:07:56.410Z,66.49
2018-06-12T14:10:25.444Z,66.63
2018-06-12T14:12:54.296Z,66.52
2018-06-12T14:15:23.329Z,65.16
2018-06-12T14:17:52.306Z,64.08
2018-06-12T14:20:21.665Z,63.05
2018-06-12T14:22:50.981Z,61.91
2018-06-12T14:25:20.175Z,60.78
2018-06-12T14:27:49.105Z,59.81
2018-06-12T14:30:17.966Z,60.45
2018-06-12T14:35:21.704Z,59.19
2018-06-12T14:37:50.819Z,59.32
2018-06-12T14:40:19.673Z,58.97
2018-06-12T14:42:48.613Z,59.08
2018-06-12T14:45:17.484Z,58.60
2018-06-12T14:47:46.433Z,58.28
2018-06-12T14:50:15.820Z,57.71
2018-06-12T14:52:45.193Z,57.11
2018-06-12T14:55:14.247Z,57.27
2018-06-12T14:57:43.492Z,56.65
2018-06-12T15:00:12.468Z,57.75
2018-06-12T15:02:41.413Z,56.66
2018-06-12T15:05:10.446Z,56.31
2018-06-12T15:07:39.433Z,55.26
2018-06-12T15:10:08.350Z,55.37
2018-06-12T15:12:37.275Z,55.59
2018-06-12T15:15:06.540Z,54.92
2018-06-12T15:17:35.680Z,55.69
2018-06-12T15:20:04.821Z,54.00
2018-06-12T15:22:33.736Z,54.24
2018-06-12T15:25:02.684Z,54.74
2018-06-12T15:27:31.567Z,55.33
2018-06-12T15:30:00.556Z,53.62
2018-06-12T15:32:29.544Z,54.28
2018-06-12T15:34:58.650Z,54.09
2018-06-12T15:37:27.536Z,54.81
2018-06-12T15:39:56.643Z,56.36
2018-06-12T15:42:25.660Z,56.75
2018-06-12T15:44:54.546Z,55.99
2018-06-12T15:47:23.647Z,56.63
2018-06-12T15:49:52.644Z,56.27
2018-06-12T15:52:21.696Z,57.16
2018-06-12T15:54:53.170Z,55.20
2018-06-12T15:57:42.189Z,56.33
2018-06-12T16:00:36.064Z,53.07
2018-06-12T16:03:24.165Z,53.69
2018-06-12T16:06:14.689Z,52.64
2018-06-12T16:09:06.525Z,54.06
2018-06-12T16:11:59.009Z,52.78
2018-06-12T16:14:52.989Z,54.82
2018-06-12T16:17:25.445Z,54.08
2018-06-12T16:19:55.211Z,53.20
2018-06-12T16:22:24.044Z,53.00
2018-06-12T16:24:52.973Z,52.33
2018-06-12T16:27:22.224Z,51.83
2018-06-12T16:29:51.136Z,52.70
2018-06-12T16:32:20.220Z,53.27
2018-06-12T16:34:49.326Z,52.76
2018-06-12T16:37:18.425Z,54.52
2018-06-12T16:39:47.473Z,53.89
2018-06-12T16:42:16.445Z,52.02
2018-06-12T16:44:45.349Z,51.70
2018-06-12T16:47:14.367Z,51.72
2018-06-12T16:49:43.288Z,53.44
2018-06-12T16:52:12.348Z,54.32
2018-06-12T16:54:41.313Z,53.33
2018-06-12T16:57:10.345Z,53.22
2018-06-12T16:59:39.286Z,54.54
2018-06-12T17:02:08.275Z,54.39
2018-06-12T17:04:37.293Z,55.61
2018-06-12T17:07:06.342Z,56.66
2018-06-12T17:09:35.524Z,57.59
2018-06-12T17:12:04.557Z,56.74
2018-06-12T17:14:33.556Z,59.29
2018-06-12T17:17:02.568Z,60.14
2018-06-12T17:19:31.540Z,63.05
2018-06-12T17:22:00.621Z,63.75
2018-06-12T17:24:29.488Z,64.60
2018-06-12T17:26:58.416Z,64.98
2018-06-12T17:29:27.956Z,66.98
2018-06-12T17:31:57.514Z,66.22
2018-06-12T17:34:26.645Z,66.00
2018-06-12T17:36:55.865Z,67.82
2018-06-12T17:39:24.716Z,66.65
2018-06-12T17:41:53.637Z,66.95
2018-06-12T17:44:22.492Z,67.01
2018-06-12T17:46:51.593Z,67.68
2018-06-12T17:49:20.477Z,68.14
2018-06-12T17:51:50.511Z,68.12
2018-06-12T17:54:19.646Z,67.17
2018-06-12T17:56:48.587Z,67.82
2018-06-12T17:59:17.960Z,68.29
2018-06-12T18:01:46.851Z,68.89
2018-06-12T18:04:15.765Z,68.18
2018-06-12T18:06:44.668Z,68.94
2018-06-12T18:09:13.553Z,68.17
2018-06-12T18:11:42.641Z,68.29
2018-06-12T18:14:11.401Z,68.24
2018-06-12T18:16:40.596Z,67.79
2018-06-12T18:19:10.223Z,68.17
2018-06-12T18:21:39.100Z,67.77
2018-06-12T18:24:07.924Z,68.53
2018-06-12T18:26:36.804Z,68.80
2018-06-12T18:29:05.600Z,68.74
2018-06-12T18:31:34.634Z,67.51
2018-06-12T18:34:03.633Z,67.99
2018-06-12T18:36:33.149Z,67.36
2018-06-12T18:39:02.189Z,68.03
2018-06-12T18:41:31.072Z,68.30
2018-06-12T18:44:00.181Z,68.35
2018-06-12T18:46:29.072Z,68.19
2018-06-12T18:48:58.202Z,68.21
2018-06-12T18:51:27.153Z,68.68
2018-06-12T18:53:56.046Z,68.11
2018-06-12T18:56:25.064Z,68.10
2018-06-12T18:58:54.021Z,67.97
2018-06-12T19:01:23.041Z,68.40
2018-06-12T19:03:51.921Z,67.28
2018-06-12T19:06:20.760Z,68.50
2018-06-12T19:08:49.850Z,68.47
2018-06-12T19:11:18.910Z,68.65
2018-06-12T19:13:48.108Z,69.90
2018-06-12T19:16:16.981Z,69.78
2018-06-12T19:18:45.965Z,69.00
2018-06-12T19:21:15.215Z,69.86
2018-06-12T19:23:44.055Z,70.55
2018-06-12T19:26:13.241Z,71.20
2018-06-12T19:28:42.192Z,70.26
2018-06-12T19:31:11.009Z,70.12
2018-06-12T19:33:40.037Z,70.30
2018-06-12T19:36:08.923Z,69.93
2018-06-12T19:38:38.075Z,70.49
2018-06-12T19:41:07.081Z,69.91
2018-06-12T19:43:35.968Z,70.27
2018-06-12T19:46:04.904Z,70.28
2018-06-12T19:48:33.802Z,70.23
2018-06-12T19:51:02.946Z,70.25
2018-06-12T19:53:31.985Z,69.68
2018-06-12T19:56:00.877Z,70.29
2018-06-12T19:58:29.729Z,70.12
2018-06-12T20:00:58.684Z,69.83
2018-06-12T20:03:27.896Z,69.59
2018-06-12T20:05:56.751Z,70.09
2018-06-12T20:08:25.724Z,70.30
2018-06-12T20:10:54.884Z,70.39
2018-06-12T20:13:23.829Z,69.19
2018-06-12T20:15:53.165Z,70.00
2018-06-12T20:18:23.016Z,70.04
2018-06-12T20:20:52.040Z,70.37
2018-06-12T20:23:21.037Z,70.25
2018-06-12T20:25:49.964Z,70.60
2018-06-12T20:28:19.263Z,70.53
2018-06-12T20:30:48.165Z,70.53
2018-06-12T20:33:17.043Z,68.97
2018-06-12T20:35:45.792Z,70.30
2018-06-12T20:38:14.514Z,70.32
2018-06-12T20:40:43.288Z,70.26
2018-06-12T20:43:12.209Z,71.22
2018-06-12T20:45:41.219Z,70.69
2018-06-12T20:48:10.281Z,70.11
2018-06-12T20:50:39.121Z,70.86
2018-06-12T20:53:08.272Z,70.03
2018-06-12T20:55:37.326Z,70.67
2018-06-12T20:58:06.364Z,70.92
2018-06-12T21:00:35.473Z,70.91
2018-06-12T21:03:04.499Z,70.14
2018-06-12T21:05:33.544Z,70.69
2018-06-12T21:08:02.493Z,71.00
2018-06-12T21:10:31.783Z,69.77
2018-06-12T21:13:00.597Z,69.72
2018-06-12T21:15:29.528Z,70.01
2018-06-12T21:17:58.719Z,69.55
2018-06-12T21:20:27.769Z,69.32
2018-06-12T21:22:56.704Z,69.26
2018-06-12T21:25:25.916Z,70.04
2018-06-12T21:27:54.829Z,69.80
2018-06-12T21:30:23.740Z,69.33
2018-06-12T21:32:52.697Z,69.06
2018-06-12T21:35:21.609Z,68.71
2018-06-12T21:37:50.549Z,68.98
2018-06-12T21:40:19.553Z,68.78
2018-06-12T21:42:48.383Z,68.94
2018-06-12T21:45:17.325Z,68.78
2018-06-12T21:47:46.364Z,68.99
2018-06-12T21:50:15.481Z,69.29
2018-06-12T21:52:44.322Z,69.56
2018-06-12T21:55:13.461Z,69.67
2018-06-12T21:57:42.437Z,69.52
2018-06-12T22:00:11.434Z,69.69
2018-06-12T22:02:40.353Z,70.04
2018-06-12T22:05:09.190Z,70.15
2018-06-12T22:07:38.109Z,68.63
2018-06-12T22:10:06.980Z,70.08
2018-06-12T22:12:35.780Z,69.61
2018-06-12T22:15:04.934Z,69.30
2018-06-12T22:17:33.924Z,69.22
2018-06-12T22:20:02.905Z,69.46
2018-06-12T22:22:31.861Z,69.88
2018-06-12T22:25:00.864Z,70.21
2018-06-12T22:27:29.853Z,69.65
2018-06-12T22:29:58.738Z,69.59
2018-06-12T22:32:27.773Z,69.98
2018-06-12T22:34:56.784Z,70.01
2018-06-12T22:37:25.581Z,69.94
2018-06-12T22:39:54.629Z,69.44
2018-06-12T22:42:23.550Z,69.95
2018-06-12T22:44:52.956Z,69.42
2018-06-12T22:47:21.789Z,69.74
2018-06-12T22:49:50.676Z,69.41
2018-06-12T22:52:19.600Z,70.31
2018-06-12T22:54:48.420Z,69.99
2018-06-12T22:57:17.617Z,70.47
2018-06-12T22:59:46.724Z,69.95
2018-06-12T23:02:15.749Z,69.69
2018-06-12T23:04:44.752Z,70.01
2018-06-12T23:07:13.729Z,69.91
2018-06-12T23:09:42.890Z,70.48
2018-06-12T23:12:12.020Z,69.81
2018-06-12T23:14:41.017Z,70.07
2018-06-12T23:17:09.809Z,69.00
2018-06-12T23:19:49.552Z,70.18
2018-06-12T23:22:18.460Z,70.04
2018-06-12T23:24:47.304Z,69.69
2018-06-12T23:27:16.138Z,70.44
2018-06-12T23:29:45.013Z,69.42
2018-06-12T23:32:13.964Z,69.81
2018-06-12T23:34:42.920Z,70.18
2018-06-12T23:37:11.648Z,69.75
2018-06-12T23:39:40.973Z,69.82
2018-06-12T23:42:09.875Z,69.57
2018-06-12T23:44:38.741Z,70.37
2018-06-12T23:47:07.569Z,69.83
2018-06-12T23:49:36.560Z,69.43
2018-06-12T23:52:05.710Z,69.28
2018-06-12T23:54:34.641Z,68.81
2018-06-12T23:57:03.590Z,69.40
2018-06-12T23:59:32.525Z,69.04
